Time;durP1;ratioP1;P1;durP2;ratioP2;P2;SDS_P1;SDS_P2;PMS_P1;PMS_P2;Temp;Humidity;BMP_temperature;BMP_pressure;BME280_temperature;BME280_humidity;BME280_pressure;Samples;Min_cycle;Max_cycle;Signal;HPM_P1;HPM_P2
2022/01/02 00:01:59;;;;;;;;;;;;;;;9.28;62.70;101854.09;5075343;28;20295;-78
2022/01/02 00:04:48;;;;;;;;;;;;;;;9.33;62.89;101849.47;5073486;28;19912;-77
2022/01/02 00:07:41;;;;;;;;;;;;;;;9.28;62.30;101838.63;5072612;28;20019;-77
2022/01/02 00:10:26;;;;;;;;;;;;;;;9.28;62.08;101835.91;5074864;28;19913;-78
2022/01/02 00:13:14;;;;;;;;;;;;;;;9.30;62.93;101835.59;5071990;28;19916;-78
2022/01/02 00:16:08;;;;;;;;;;;;;;;9.27;61.92;101831.56;5076242;28;20381;-78
2022/01/02 00:19:06;;;;;;;;;;;;;;;9.22;61.48;101828.88;5069511;28;19912;-77
2022/01/02 00:21:53;;;;;;;;;;;;;;;9.26;59.96;101835.38;5072197;28;19916;-78
2022/01/02 00:24:40;;;;;;;;;;;;;;;9.29;62.47;101820.44;5075829;28;19912;-78
2022/01/02 00:27:26;;;;;;;;;;;;;;;9.30;62.55;101825.56;5071980;28;19912;-78
2022/01/02 00:30:11;;;;;;;;;;;;;;;9.33;63.67;101829.63;5071961;28;20533;-78
2022/01/02 00:32:56;;;;;;;;;;;;;;;9.34;62.59;101828.56;5054772;28;19916;-78
2022/01/02 00:35:40;;;;;;;;;;;;;;;9.33;60.15;101824.22;5062057;28;19912;-78
2022/01/02 00:38:25;;;;;;;;;;;;;;;9.30;60.75;101830.19;5057135;28;20381;-77
2022/01/02 00:41:09;;;;;;;;;;;;;;;9.28;61.29;101829.66;5076578;28;19912;-78
2022/01/02 00:43:57;;;;;;;;;;;;;;;9.36;63.43;101826.34;5074125;28;19912;-78
2022/01/02 00:47:02;;;;;;;;;;;;;;;9.39;64.41;101832.06;5072409;28;20469;-79
2022/01/02 00:49:56;;;;;;;;;;;;;;;9.42;65.25;101839.63;5027687;28;19912;-79
2022/01/02 00:52:42;;;;;;;;;;;;;;;9.39;63.75;101834.78;5071572;28;19916;-79
2022/01/02 00:55:30;;;;;;;;;;;;;;;9.44;64.60;101851.03;5061650;28;19912;-79
2022/01/02 00:58:18;;;;;;;;;;;;;;;9.31;64.10;101859.78;5071478;28;19913;-79
2022/01/02 01:01:12;;;;;;;;;;;;;;;9.27;61.15;101858.72;5071302;28;19927;-79
2022/01/02 01:03:57;;;;;;;;;;;;;;;9.25;58.18;101857.34;5060651;28;19912;-78
2022/01/02 01:06:46;;;;;;;;;;;;;;;9.14;57.54;101850.34;5071691;28;19912;-78
2022/01/02 01:09:31;;;;;;;;;;;;;;;9.10;57.58;101841.13;5071404;28;19912;-78
2022/01/02 01:12:17;;;;;;;;;;;;;;;9.08;55.91;101841.44;5060452;28;20004;-78
2022/01/02 01:15:04;;;;;;;;;;;;;;;9.09;59.78;101840.34;5071719;28;20381;-78
2022/01/02 01:17:49;;;;;;;;;;;;;;;9.03;59.89;101849.59;5057404;28;19913;-78
2022/01/02 01:20:39;;;;;;;;;;;;;;;9.01;60.62;101854.47;5060649;28;19920;-78
2022/01/02 01:23:23;;;;;;;;;;;;;;;9.00;61.67;101853.66;5074365;28;19917;-78
2022/01/02 01:26:09;;;;;;;;;;;;;;;9.03;63.00;101855.00;5057021;28;20365;-78
2022/01/02 01:28:54;;;;;;;;;;;;;;;9.00;61.81;101847.41;5070876;28;19913;-78
2022/01/02 01:31:38;;;;;;;;;;;;;;;8.95;61.59;101844.72;5073941;28;19912;-78
2022/01/02 01:34:22;;;;;;;;;;;;;;;8.97;62.29;101834.41;5062539;28;19920;-77
2022/01/02 01:37:07;;;;;;;;;;;;;;;8.92;61.08;101829.81;5071279;28;19912;-77
2022/01/02 01:39:55;;;;;;;;;;;;;;;8.99;61.69;101826.78;5059036;28;19912;-78
2022/01/02 01:42:42;;;;;;;;;;;;;;;8.99;62.38;101833.03;5057343;28;20377;-78
2022/01/02 01:45:28;;;;;;;;;;;;;;;8.97;62.17;101820.84;5060998;28;20292;-78
2022/01/02 01:48:13;;;;;;;;;;;;;;;8.98;63.61;101811.63;5059645;28;20555;-79
2022/01/02 01:50:58;;;;;;;;;;;;;;;8.99;63.97;101813.22;5071222;28;19913;-78
2022/01/02 01:53:43;;;;;;;;;;;;;;;9.02;63.88;101812.69;5060133;28;19920;-79
2022/01/02 01:56:28;;;;;;;;;;;;;;;9.04;62.86;101815.13;5059406;28;20380;-78
2022/01/02 01:59:14;;;;;;;;;;;;;;;9.00;60.41;101809.44;5057728;28;19912;-78
2022/01/02 02:01:59;;;;;;;;;;;;;;;8.95;61.28;101814.88;5061592;28;19912;-78
2022/01/02 02:04:44;;;;;;;;;;;;;;;9.08;65.80;101816.19;5058875;28;19916;-78
2022/01/02 02:07:38;;;;;;;;;;;;;;;9.22;69.08;101815.31;5056334;28;19913;-77
2022/01/02 02:13:09;;;;;;;;;;;;;;;9.26;69.76;101815.56;5062208;28;19916;-78
2022/01/02 02:16:00;;;;;;;;;;;;;;;9.33;71.08;101811.47;5059914;28;19912;-78
2022/01/02 02:18:45;;;;;;;;;;;;;;;9.33;70.23;101814.16;5059012;28;20292;-78
2022/01/02 02:21:36;;;;;;;;;;;;;;;9.42;73.97;101811.66;5051825;28;19912;-78
2022/01/02 02:24:22;;;;;;;;;;;;;;;9.51;75.10;101803.72;5060030;28;19912;-77
2022/01/02 02:27:07;;;;;;;;;;;;;;;9.42;73.68;101815.19;5075159;28;19913;-78
2022/01/02 02:29:51;;;;;;;;;;;;;;;9.33;69.04;101822.31;5088449;28;19911;-79
2022/01/02 02:32:38;;;;;;;;;;;;;;;9.22;64.96;101823.44;5080168;28;19916;-79
2022/01/02 02:35:24;;;;;;;;;;;;;;;9.08;61.02;101827.84;5078782;28;19912;-78
2022/01/02 02:38:10;;;;;;;;;;;;;;;8.97;64.45;101831.69;5062282;28;19916;-77
2022/01/02 02:40:56;;;;;;;;;;;;;;;9.08;68.12;101841.44;5059991;28;19912;-78
2022/01/02 02:49:38;;;;;;;;;;;;;;;8.74;72.21;101846.66;5059334;28;19916;-78
2022/01/02 02:52:38;;;;;;;;;;;;;;;8.98;73.88;101838.75;5062701;28;19912;-78
2022/01/02 02:55:30;;;;;;;;;;;;;;;8.76;73.35;101835.56;5073457;28;19912;-78
2022/01/02 03:01:16;;;;;;;;;;;;;;;8.91;73.96;101827.38;5041275;28;20316;-77
2022/01/02 03:04:01;;;;;;;;;;;;;;;8.89;74.54;101824.94;5038941;28;19913;-78
2022/01/02 03:06:47;;;;;;;;;;;;;;;8.83;73.89;101825.25;5063485;28;19913;-79
2022/01/02 03:09:40;;;;;;;;;;;;;;;8.82;74.38;101829.03;5061004;28;19916;-78
2022/01/02 03:12:26;;;;;;;;;;;;;;;8.93;74.36;101825.22;5058515;28;19913;-77
2022/01/02 03:15:13;;;;;;;;;;;;;;;8.93;74.33;101830.63;5072204;28;19912;-78
2022/01/02 03:17:57;;;;;;;;;;;;;;;9.03;75.11;101830.59;5073231;28;19913;-78
2022/01/02 03:20:42;;;;;;;;;;;;;;;9.02;75.63;101818.13;5058998;28;19912;-78
2022/01/02 03:23:26;;;;;;;;;;;;;;;8.77;74.42;101810.88;5076739;28;20369;-77
2022/01/02 03:26:11;;;;;;;;;;;;;;;8.75;74.57;101806.81;5060968;28;20368;-78
2022/01/02 03:28:57;;;;;;;;;;;;;;;8.70;73.88;101802.22;5059004;28;19912;-78
2022/01/02 03:31:41;;;;;;;;;;;;;;;8.85;75.08;101810.31;5062959;28;19912;-78
2022/01/02 03:34:26;;;;;;;;;;;;;;;8.63;70.69;101803.59;5060629;28;19917;-78
2022/01/02 03:37:10;;;;;;;;;;;;;;;8.76;70.17;101809.25;5048737;28;19912;-76
2022/01/02 03:39:55;;;;;;;;;;;;;;;8.72;70.23;101804.66;5063204;28;19912;-76
2022/01/02 03:42:39;;;;;;;;;;;;;;;8.80;71.39;101807.59;5061272;28;20459;-76
2022/01/02 03:45:24;;;;;;;;;;;;;;;8.97;73.77;101804.56;5058936;28;19912;-79
2022/01/02 03:48:09;;;;;;;;;;;;;;;8.92;71.06;101796.44;5062051;28;19920;-78
2022/01/02 03:50:53;;;;;;;;;;;;;;;8.91;70.67;101786.69;5061150;28;19916;-77
2022/01/02 03:53:38;;;;;;;;;;;;;;;8.82;66.07;101789.16;5059108;28;19916;-78
2022/01/02 03:56:23;;;;;;;;;;;;;;;8.80;66.21;101787.81;5058022;28;19912;-77
2022/01/02 03:59:08;;;;;;;;;;;;;;;8.75;64.85;101779.69;5060707;28;19912;-78
2022/01/02 04:01:53;;;;;;;;;;;;;;;8.77;65.07;101785.66;5059561;28;20109;-79
2022/01/02 04:04:38;;;;;;;;;;;;;;;8.81;66.36;101779.41;5058000;28;19916;-78
2022/01/02 04:07:22;;;;;;;;;;;;;;;8.94;71.41;101796.97;5073801;28;19912;-78
2022/01/02 04:10:09;;;;;;;;;;;;;;;8.78;68.36;101792.72;5058345;28;19912;-77
2022/01/02 04:12:53;;;;;;;;;;;;;;;8.74;68.48;101772.63;5057119;28;19920;-78
2022/01/02 04:15:38;;;;;;;;;;;;;;;8.74;68.83;101778.06;5061463;28;19913;-78
2022/01/02 04:18:25;;;;;;;;;;;;;;;8.74;69.33;101775.34;5071979;28;19912;-79
2022/01/02 04:21:09;;;;;;;;;;;;;;;8.67;65.50;101766.72;5057257;28;19912;-78
2022/01/02 04:23:54;;;;;;;;;;;;;;;8.61;66.30;101756.97;5061304;28;19916;-78
2022/01/02 04:26:39;;;;;;;;;;;;;;;8.50;65.32;101759.72;5059075;28;19912;-79
2022/01/02 04:29:24;;;;;;;;;;;;;;;8.52;65.70;101754.84;5057379;28;19912;-79
2022/01/02 04:32:09;;;;;;;;;;;;;;;8.55;66.41;101743.44;5072140;28;19913;-77
2022/01/02 04:34:53;;;;;;;;;;;;;;;8.52;63.54;101741.28;5074247;28;19920;-78
2022/01/02 04:37:39;;;;;;;;;;;;;;;8.53;66.50;101745.59;5071590;28;19912;-78
2022/01/02 04:40:24;;;;;;;;;;;;;;;8.56;65.93;101742.34;5061124;28;19912;-77
2022/01/02 04:43:10;;;;;;;;;;;;;;;8.55;64.94;101732.59;5059729;28;19912;-78
2022/01/02 04:45:58;;;;;;;;;;;;;;;8.57;66.15;101735.03;5057742;28;19913;-78
2022/01/02 04:48:43;;;;;;;;;;;;;;;8.61;67.72;101727.16;5055361;28;19916;-78
2022/01/02 04:51:29;;;;;;;;;;;;;;;8.55;64.76;101731.78;5049373;28;19912;-78
2022/01/02 04:54:14;;;;;;;;;;;;;;;8.56;65.04;101730.69;5069953;28;19916;-78
2022/01/02 04:56:59;;;;;;;;;;;;;;;8.55;66.47;101735.28;5058401;28;19912;-77
2022/01/02 04:59:43;;;;;;;;;;;;;;;8.45;61.76;101727.19;5063384;28;19912;-79
2022/01/02 05:02:28;;;;;;;;;;;;;;;8.44;62.45;101736.41;5038057;28;19912;-78
2022/01/02 05:05:13;;;;;;;;;;;;;;;8.37;59.66;101738.63;5041796;28;20301;-78
2022/01/02 05:07:58;;;;;;;;;;;;;;;8.41;63.79;101750.53;5053751;28;19912;-78
2022/01/02 05:10:42;;;;;;;;;;;;;;;8.15;61.84;101744.31;5071435;28;19916;-78
2022/01/02 05:13:27;;;;;;;;;;;;;;;8.24;62.91;101730.19;5061459;28;19916;-79
2022/01/02 05:16:13;;;;;;;;;;;;;;;8.26;67.09;101739.69;5059927;28;19912;-78
2022/01/02 05:18:58;;;;;;;;;;;;;;;8.43;71.77;101748.34;5057913;28;19912;-79
2022/01/02 05:21:42;;;;;;;;;;;;;;;8.50;73.76;101751.56;5049750;28;19912;-77
2022/01/02 05:24:27;;;;;;;;;;;;;;;8.43;72.67;101739.41;5073304;28;19912;-79
2022/01/02 05:27:11;;;;;;;;;;;;;;;8.30;72.97;101724.53;5057166;28;19912;-78
2022/01/02 05:29:56;;;;;;;;;;;;;;;8.35;76.03;101727.22;5056684;28;19912;-78
2022/01/02 05:32:40;;;;;;;;;;;;;;;8.42;76.47;101737.78;5053443;28;19913;-79
2022/01/02 05:35:25;;;;;;;;;;;;;;;8.40;76.21;101745.38;5062850;28;19912;-78
2022/01/02 05:38:09;;;;;;;;;;;;;;;8.46;77.07;101744.28;5044779;28;19912;-78
2022/01/02 05:40:55;;;;;;;;;;;;;;;8.35;75.98;101732.66;5060776;28;19912;-78
2022/01/02 05:43:40;;;;;;;;;;;;;;;8.32;76.31;101737.81;5071105;28;20310;-78
2022/01/02 05:46:25;;;;;;;;;;;;;;;8.40;76.92;101738.06;5061843;28;20312;-78
2022/01/02 05:49:11;;;;;;;;;;;;;;;8.25;75.64;101729.94;5085307;28;19912;-79
2022/01/02 05:51:55;;;;;;;;;;;;;;;8.27;76.41;101725.06;5073438;28;19912;-78
2022/01/02 05:54:40;;;;;;;;;;;;;;;8.25;75.91;101734.53;5060773;28;20384;-78
2022/01/02 05:57:24;;;;;;;;;;;;;;;8.34;77.07;101744.56;5077410;28;19916;-81
2022/01/02 06:00:09;;;;;;;;;;;;;;;8.34;77.46;101736.44;5065100;28;19912;-79
2022/01/02 06:03:06;;;;;;;;;;;;;;;8.24;76.29;101741.84;5060550;28;19912;-79
2022/01/02 06:05:50;;;;;;;;;;;;;;;8.23;75.92;101742.94;5066599;28;19912;-79
2022/01/02 06:08:36;;;;;;;;;;;;;;;8.18;75.10;101740.22;5059014;28;19913;-79
2022/01/02 06:11:20;;;;;;;;;;;;;;;8.23;74.89;101742.16;5065143;28;19912;-80
2022/01/02 06:14:05;;;;;;;;;;;;;;;8.06;73.10;101739.72;5079050;28;19920;-79
2022/01/02 06:16:49;;;;;;;;;;;;;;;7.98;72.60;101740.25;5083856;28;19912;-78
2022/01/02 06:19:33;;;;;;;;;;;;;;;8.03;72.29;101742.97;5081274;28;19912;-77
2022/01/02 06:22:18;;;;;;;;;;;;;;;8.01;68.83;101726.19;5077629;28;19913;-77
2022/01/02 06:25:03;;;;;;;;;;;;;;;7.79;67.36;101718.34;5062291;28;19913;-77
2022/01/02 06:27:48;;;;;;;;;;;;;;;7.81;69.63;101718.09;5061024;28;19912;-77
2022/01/02 06:30:32;;;;;;;;;;;;;;;7.80;70.17;101716.47;5079832;28;19912;-77
2022/01/02 06:33:18;;;;;;;;;;;;;;;7.82;69.59;101722.44;5062155;28;19916;-78
2022/01/02 06:36:02;;;;;;;;;;;;;;;7.84;71.09;101722.94;5063209;28;19917;-78
2022/01/02 06:38:48;;;;;;;;;;;;;;;7.78;69.04;101727.56;5058812;28;19912;-76
2022/01/02 06:41:32;;;;;;;;;;;;;;;7.89;71.07;101725.66;5073312;28;19912;-77
2022/01/02 06:44:17;;;;;;;;;;;;;;;7.88;72.01;101724.84;5094142;28;19912;-77
2022/01/02 06:47:02;;;;;;;;;;;;;;;8.00;73.16;101719.16;5079207;28;19991;-77
2022/01/02 06:49:47;;;;;;;;;;;;;;;7.97;73.04;101719.72;5077854;28;20392;-77
2022/01/02 06:52:31;;;;;;;;;;;;;;;7.90;70.55;101724.56;5073599;28;19916;-77
2022/01/02 06:55:16;;;;;;;;;;;;;;;7.95;70.58;101730.00;5059069;28;20372;-77
2022/01/02 06:58:01;;;;;;;;;;;;;;;7.99;69.07;101725.63;5062997;28;19912;-77
2022/01/02 07:00:45;;;;;;;;;;;;;;;7.92;65.21;101730.53;5061603;28;19913;-77
2022/01/02 07:03:33;;;;;;;;;;;;;;;7.94;66.40;101725.66;5039351;28;20293;-77
2022/01/02 07:06:17;;;;;;;;;;;;;;;7.96;68.21;101740.56;5042441;28;19912;-78
2022/01/02 07:09:03;;;;;;;;;;;;;;;7.89;64.26;101734.59;5041705;28;19912;-78
2022/01/02 07:11:47;;;;;;;;;;;;;;;7.90;66.83;101735.41;5073823;28;20376;-77
2022/01/02 07:14:32;;;;;;;;;;;;;;;7.76;63.40;101734.34;5078256;28;19921;-77
2022/01/02 07:17:16;;;;;;;;;;;;;;;7.87;67.43;101744.09;5074779;28;19912;-77
2022/01/02 07:20:01;;;;;;;;;;;;;;;7.82;64.12;101742.19;5074104;28;19912;-76
2022/01/02 07:22:47;;;;;;;;;;;;;;;7.78;62.58;101737.56;5078395;28;19916;-77
2022/01/02 07:25:31;;;;;;;;;;;;;;;7.76;60.83;101743.28;5076408;28;19916;-77
2022/01/02 07:28:15;;;;;;;;;;;;;;;7.67;59.53;101726.75;5074077;28;19912;-77
2022/01/02 07:31:00;;;;;;;;;;;;;;;7.69;61.08;101738.13;5077252;28;19912;-77
2022/01/02 07:33:45;;;;;;;;;;;;;;;7.64;60.03;101731.91;5076233;28;20292;-77
2022/01/02 07:36:29;;;;;;;;;;;;;;;7.59;59.73;101730.00;5074005;28;20000;-77
2022/01/02 07:39:14;;;;;;;;;;;;;;;7.63;61.88;101727.56;5078309;28;19916;-77
2022/01/02 07:41:58;;;;;;;;;;;;;;;7.59;60.93;101719.19;5076855;28;19912;-76
2022/01/02 07:44:51;;;;;;;;;;;;;;;7.63;62.97;101719.44;5059393;28;19912;-77
2022/01/02 07:47:37;;;;;;;;;;;;;;;7.57;59.87;101710.50;5072722;28;19916;-78
2022/01/02 07:50:22;;;;;;;;;;;;;;;7.58;60.39;101712.13;5056684;28;19913;-77
2022/01/02 07:53:07;;;;;;;;;;;;;;;7.61;63.21;101721.63;5073388;28;19912;-77
2022/01/02 07:55:51;;;;;;;;;;;;;;;7.83;67.27;101730.25;5072917;28;19913;-76
2022/01/02 07:58:35;;;;;;;;;;;;;;;8.03;70.24;101724.81;5076085;28;20380;-77
2022/01/02 08:01:20;;;;;;;;;;;;;;;8.11;71.75;101732.41;5073290;28;20500;-78
2022/01/02 08:04:04;;;;;;;;;;;;;;;8.07;69.37;101730.53;5076093;28;19916;-78
2022/01/02 08:06:49;;;;;;;;;;;;;;;7.81;64.24;101729.75;5073044;28;19912;-77
2022/01/02 08:09:33;;;;;;;;;;;;;;;7.76;58.44;101731.63;5073496;28;19913;-77
2022/01/02 08:12:18;;;;;;;;;;;;;;;7.34;57.05;101723.75;5071966;28;21453;-76
2022/01/02 08:15:02;;;;;;;;;;;;;;;7.16;57.30;101719.69;5060178;28;19916;-77
2022/01/02 08:17:47;;;;;;;;;;;;;;;6.68;56.83;101719.00;5076775;28;19912;-77
2022/01/02 08:20:32;;;;;;;;;;;;;;;6.54;56.77;101717.03;5069234;28;19916;-79
2022/01/02 08:23:16;;;;;;;;;;;;;;;6.40;57.34;101720.19;5076899;28;20392;-78
2022/01/02 08:26:01;;;;;;;;;;;;;;;6.08;57.82;101715.97;5074921;28;19912;-77
2022/01/02 08:28:45;;;;;;;;;;;;;;;5.76;57.65;101724.91;5073313;28;20296;-77
2022/01/02 08:31:30;;;;;;;;;;;;;;;3.35;63.61;101724.28;5052637;28;19912;-78
2022/01/02 08:34:14;;;;;;;;;;;;;;;1.25;72.29;101721.88;5056003;28;19917;-77
2022/01/02 08:36:59;;;;;;;;;;;;;;;1.54;73.24;101725.53;5059153;28;20292;-77
2022/01/02 08:39:44;;;;;;;;;;;;;;;1.85;73.32;101731.63;5067811;28;19912;-77
2022/01/02 08:42:29;;;;;;;;;;;;;;;1.46;73.57;101727.75;5079695;28;20293;-77
2022/01/02 08:45:13;;;;;;;;;;;;;;;1.22;75.54;101733.03;5074002;28;19913;-77
2022/01/02 08:47:58;;;;;;;;;;;;;;;1.14;75.37;101736.03;5071926;28;19913;-76
2022/01/02 08:50:43;;;;;;;;;;;;;;;1.42;75.47;101732.75;5075614;28;19913;-77
2022/01/02 08:53:27;;;;;;;;;;;;;;;1.31;76.10;101730.84;5069658;28;19912;-76
2022/01/02 08:56:14;;;;;;;;;;;;;;;1.28;75.84;101729.44;5071796;28;20385;-77
2022/01/02 08:58:58;;;;;;;;;;;;;;;1.44;75.81;101733.31;5077982;28;19912;-77
2022/01/02 09:01:44;;;;;;;;;;;;;;;1.47;74.88;101727.53;5073618;28;20300;-76
2022/01/02 09:04:29;;;;;;;;;;;;;;;1.84;74.13;101730.00;5070994;28;20404;-77
2022/01/02 09:07:13;;;;;;;;;;;;;;;2.03;73.90;101728.88;5079831;28;19912;-76
2022/01/02 09:09:57;;;;;;;;;;;;;;;1.65;74.46;101740.00;5060204;28;19920;-75
2022/01/02 09:12:42;;;;;;;;;;;;;;;2.13;73.12;101737.13;5074446;28;19913;-76
2022/01/02 09:15:27;;;;;;;;;;;;;;;2.49;71.66;101736.03;5092117;28;19916;-76
2022/01/02 09:18:11;;;;;;;;;;;;;;;2.38;73.92;101736.88;5075067;28;19912;-75
2022/01/02 09:20:55;;;;;;;;;;;;;;;2.31;73.53;101731.63;5060110;28;19916;-76
2022/01/02 09:23:40;;;;;;;;;;;;;;;2.11;74.03;101737.38;5074176;28;19916;-75
2022/01/02 09:26:24;;;;;;;;;;;;;;;2.79;73.58;101743.91;5080549;28;19916;-76
2022/01/02 09:29:09;;;;;;;;;;;;;;;3.01;72.33;101745.69;5076999;28;19913;-75
2022/01/02 09:31:53;;;;;;;;;;;;;;;3.66;69.56;101749.78;5074708;28;20304;-74
2022/01/02 09:34:38;;;;;;;;;;;;;;;3.84;67.50;101746.88;5079059;28;19916;-75
2022/01/02 09:37:22;;;;;;;;;;;;;;;3.83;67.08;101739.84;5080732;28;19912;-75
2022/01/02 09:40:07;;;;;;;;;;;;;;;3.19;69.56;101739.31;5080561;28;19912;-74
2022/01/02 09:42:52;;;;;;;;;;;;;;;3.28;69.36;101737.03;5073003;28;19912;-74
2022/01/02 09:45:38;;;;;;;;;;;;;;;3.47;69.20;101737.63;5057343;28;19913;-74
2022/01/02 09:48:23;;;;;;;;;;;;;;;3.31;69.76;101726.63;5055547;28;19912;-74
2022/01/02 09:51:07;;;;;;;;;;;;;;;2.98;70.61;101723.88;5063481;28;19912;-74
2022/01/02 09:53:54;;;;;;;;;;;;;;;3.56;71.09;101717.34;5077445;28;19916;-74
2022/01/02 09:56:38;;;;;;;;;;;;;;;3.34;70.27;101718.09;5075581;28;19912;-74
2022/01/02 09:59:23;;;;;;;;;;;;;;;3.42;70.54;101720.38;5079856;28;20368;-74
2022/01/02 10:02:07;;;;;;;;;;;;;;;3.14;73.03;101723.09;5077694;28;19912;-75
2022/01/02 10:04:59;;;;;;;;;;;;;;;3.00;73.68;101719.88;5055363;28;19913;-74
2022/01/02 10:07:43;;;;;;;;;;;;;;;3.79;71.71;101714.50;5054746;28;19912;-74
2022/01/02 10:10:33;;;;;;;;;;;;;;;3.47;71.82;101713.44;5057576;28;19912;-74
2022/01/02 10:13:17;;;;;;;;;;;;;;;2.91;73.52;101709.75;5062168;28;19912;-74
2022/01/02 10:16:02;;;;;;;;;;;;;;;3.07;74.61;101711.66;5079038;28;19917;-75
2022/01/02 10:18:48;;;;;;;;;;;;;;;3.31;73.59;101718.56;5081365;28;19912;-79
2022/01/02 10:21:37;;;;;;;;;;;;;;;3.54;72.51;101717.63;5070359;28;19912;-75
2022/01/02 10:24:23;;;;;;;;;;;;;;;4.07;70.63;101725.16;5074104;28;19912;-74
2022/01/02 10:27:17;;;;;;;;;;;;;;;3.82;70.70;101722.91;5076143;28;19912;-75
2022/01/02 10:30:03;;;;;;;;;;;;;;;4.31;69.44;101709.63;5075058;28;20349;-75
2022/01/02 10:32:47;;;;;;;;;;;;;;;4.38;69.70;101709.41;5076092;28;19912;-76
2022/01/02 10:35:35;;;;;;;;;;;;;;;4.28;69.47;101704.72;5082684;28;19920;-75
2022/01/02 10:38:20;;;;;;;;;;;;;;;3.96;70.74;101701.06;5078667;28;19912;-75
2022/01/02 10:41:04;;;;;;;;;;;;;;;3.93;72.15;101691.59;5078952;28;19912;-75
2022/01/02 10:43:49;;;;;;;;;;;;;;;3.87;72.08;101695.25;5077589;28;19912;-74
2022/01/02 10:46:33;;;;;;;;;;;;;;;3.92;72.09;101687.25;5064681;28;19912;-75
2022/01/02 10:49:17;;;;;;;;;;;;;;;4.20;71.08;101684.44;5090441;28;19912;-75
2022/01/02 10:52:18;;;;;;;;;;;;;;;4.24;72.12;101682.88;5085698;28;20405;-74
2022/01/02 10:55:23;;;;;;;;;;;;;;;4.31;71.26;101671.94;5074097;28;19917;-75
2022/01/02 10:58:07;;;;;;;;;;;;;;;4.29;70.98;101671.34;5071010;28;20316;-75
2022/01/02 11:00:52;;;;;;;;;;;;;;;3.82;73.60;101673.66;5071679;28;19912;-75
2022/01/02 11:03:37;;;;;;;;;;;;;;;4.25;72.61;101662.97;5061426;28;19912;-75
2022/01/02 11:06:27;;;;;;;;;;;;;;;4.22;72.68;101668.03;5077466;28;19912;-76
2022/01/02 11:09:13;;;;;;;;;;;;;;;5.18;69.67;101665.63;5074474;28;19912;-75
2022/01/02 11:11:57;;;;;;;;;;;;;;;4.54;71.96;101660.91;5087477;28;19912;-75
2022/01/02 11:14:42;;;;;;;;;;;;;;;4.75;71.19;101667.31;5057116;28;19917;-75
2022/01/02 11:17:27;;;;;;;;;;;;;;;5.14;69.42;101657.19;5054827;28;19912;-75
2022/01/02 11:20:13;;;;;;;;;;;;;;;5.65;67.62;101638.72;5071106;28;19912;-75
2022/01/02 11:23:00;;;;;;;;;;;;;;;5.94;67.34;101632.72;5081911;28;19917;-75
2022/01/02 11:25:51;;;;;;;;;;;;;;;5.60;68.48;101631.41;5075605;28;19913;-75
2022/01/02 11:28:39;;;;;;;;;;;;;;;5.60;67.87;101623.31;5073258;28;19920;-75
2022/01/02 11:31:29;;;;;;;;;;;;;;;5.53;69.46;101631.66;5073952;28;19912;-75
2022/01/02 11:34:46;;;;;;;;;;;;;;;5.27;70.32;101626.31;5072975;28;19924;-75
2022/01/02 11:37:30;;;;;;;;;;;;;;;5.40;71.98;101620.47;5074039;28;19916;-75
2022/01/02 11:40:15;;;;;;;;;;;;;;;5.44;71.24;101617.00;5069062;28;20203;-75
2022/01/02 11:42:59;;;;;;;;;;;;;;;6.13;68.21;101610.69;5070791;28;19912;-75
2022/01/02 11:45:44;;;;;;;;;;;;;;;6.28;68.14;101606.19;5075996;28;19913;-74
2022/01/02 11:48:29;;;;;;;;;;;;;;;5.98;68.40;101614.97;5075308;28;19912;-75
2022/01/02 11:51:14;;;;;;;;;;;;;;;6.20;68.06;101597.75;5067198;28;19912;-74
2022/01/02 11:53:58;;;;;;;;;;;;;;;6.55;67.42;101597.91;5079582;28;19912;-76
2022/01/02 11:56:42;;;;;;;;;;;;;;;6.20;68.44;101593.16;5074963;28;20381;-75
2022/01/02 11:59:39;;;;;;;;;;;;;;;6.12;69.78;101592.88;5071727;28;19950;-75
2022/01/02 12:02:26;;;;;;;;;;;;;;;6.03;69.07;101587.16;5075099;28;19912;-75
2022/01/02 12:05:12;;;;;;;;;;;;;;;5.65;70.71;101574.78;5074447;28;19912;-75
2022/01/02 12:07:58;;;;;;;;;;;;;;;5.96;71.02;101584.69;5072409;28;19913;-75
2022/01/02 12:10:47;;;;;;;;;;;;;;;6.25;69.62;101576.97;5077121;28;19912;-74
2022/01/02 12:13:35;;;;;;;;;;;;;;;6.26;70.03;101575.09;5073523;28;19920;-75
2022/01/02 12:16:32;;;;;;;;;;;;;;;6.12;69.07;101565.88;5070886;28;19916;-75
2022/01/02 12:19:16;;;;;;;;;;;;;;;5.39;72.77;101565.72;5076261;28;19912;-75
2022/01/02 12:22:08;;;;;;;;;;;;;;;5.88;71.68;101563.63;5073748;28;19912;-75
2022/01/02 12:24:52;;;;;;;;;;;;;;;5.66;71.49;101556.72;5077132;28;19916;-75
2022/01/02 12:27:44;;;;;;;;;;;;;;;5.65;73.04;101553.22;5072348;28;19913;-75
2022/01/02 12:30:29;;;;;;;;;;;;;;;6.18;70.73;101556.72;5073228;28;19912;-75
2022/01/02 12:33:21;;;;;;;;;;;;;;;6.46;69.51;101553.53;5076930;28;19912;-74
2022/01/02 12:36:10;;;;;;;;;;;;;;;6.51;69.51;101555.44;5074980;28;20293;-75
2022/01/02 12:38:56;;;;;;;;;;;;;;;6.78;68.58;101556.84;5073086;28;19912;-75
2022/01/02 12:41:42;;;;;;;;;;;;;;;6.73;69.07;101558.72;5077071;28;19912;-74
2022/01/02 12:44:31;;;;;;;;;;;;;;;6.56;69.58;101542.75;5073980;28;19912;-73
2022/01/02 12:47:17;;;;;;;;;;;;;;;6.65;68.66;101546.56;5072920;28;19916;-74
2022/01/02 12:50:01;;;;;;;;;;;;;;;6.34;70.76;101536.78;5077219;28;19912;-75
2022/01/02 12:52:50;;;;;;;;;;;;;;;6.29;70.79;101544.88;5074931;28;19916;-75
2022/01/02 12:55:34;;;;;;;;;;;;;;;6.49;69.83;101546.81;5052027;28;19917;-74
2022/01/02 12:58:21;;;;;;;;;;;;;;;6.48;69.97;101540.59;5066855;28;20373;-75
2022/01/02 13:01:06;;;;;;;;;;;;;;;6.60;69.30;101532.25;5062010;28;19916;-75
2022/01/02 13:03:50;;;;;;;;;;;;;;;6.91;68.62;101538.47;5063560;28;19920;-74
2022/01/02 13:06:35;;;;;;;;;;;;;;;7.04;68.67;101540.63;5080403;28;20288;-75
2022/01/02 13:09:24;;;;;;;;;;;;;;;6.90;68.55;101526.03;5066243;28;19913;-74
2022/01/02 13:12:26;;;;;;;;;;;;;;;6.33;71.62;101519.75;5064041;28;19912;-75
2022/01/02 13:15:13;;;;;;;;;;;;;;;6.72;69.84;101517.38;5073707;28;19917;-75
2022/01/02 13:17:58;;;;;;;;;;;;;;;6.91;69.66;101511.44;5074212;28;20365;-75
2022/01/02 13:20:44;;;;;;;;;;;;;;;7.03;69.28;101503.84;5079451;28;20296;-73
2022/01/02 13:23:30;;;;;;;;;;;;;;;6.94;69.10;101506.28;5072928;28;19912;-75
2022/01/02 13:26:16;;;;;;;;;;;;;;;7.01;69.77;101503.31;5069364;28;19920;-74
2022/01/02 13:29:01;;;;;;;;;;;;;;;7.10;68.62;101498.97;5072002;28;20288;-75
2022/01/02 13:31:45;;;;;;;;;;;;;;;6.93;69.11;101488.44;5072749;28;20332;-74
2022/01/02 13:34:29;;;;;;;;;;;;;;;6.71;70.27;101485.19;5068582;28;19916;-73
2022/01/02 13:37:14;;;;;;;;;;;;;;;6.69;70.45;101482.78;5067025;28;19913;-74
2022/01/02 13:39:58;;;;;;;;;;;;;;;6.89;70.40;101481.97;5072077;28;20311;-74
2022/01/02 13:42:43;;;;;;;;;;;;;;;6.90;70.37;101475.50;5071368;28;19912;-75
2022/01/02 13:45:30;;;;;;;;;;;;;;;6.45;72.35;101470.88;5061559;28;20312;-74
2022/01/02 13:48:22;;;;;;;;;;;;;;;6.52;72.12;101459.81;5070485;28;20397;-74
2022/01/02 13:51:14;;;;;;;;;;;;;;;6.24;73.83;101471.94;5067016;28;19916;-74
2022/01/02 13:53:58;;;;;;;;;;;;;;;6.63;71.54;101467.66;5062371;28;19912;-75
2022/01/02 13:56:56;;;;;;;;;;;;;;;6.62;71.69;101467.91;5065287;28;20068;-74
2022/01/02 13:59:41;;;;;;;;;;;;;;;6.35;72.84;101471.66;5068049;28;19912;-73
2022/01/02 14:02:38;;;;;;;;;;;;;;;6.06;73.11;101456.22;5066226;28;19913;-74
2022/01/02 14:05:43;;;;;;;;;;;;;;;5.91;74.39;101455.13;5061668;28;19913;-73
2022/01/02 14:08:28;;;;;;;;;;;;;;;5.90;74.92;101447.28;5063307;28;20288;-74
2022/01/02 14:11:13;;;;;;;;;;;;;;;5.82;75.40;101451.28;5075125;28;20521;-74
2022/01/02 14:19:51;;;;;;;;;;;;;;;5.63;76.61;101449.34;5073156;28;19920;-73
2022/01/02 14:22:36;;;;;;;;;;;;;;;5.05;79.78;101448.50;5078669;28;20384;-73
2022/01/02 14:25:20;;;;;;;;;;;;;;;5.18;79.71;101452.63;5074337;28;19912;-74
2022/01/02 14:28:05;;;;;;;;;;;;;;;5.47;79.02;101461.94;5073395;28;19920;-76
2022/01/02 14:30:50;;;;;;;;;;;;;;;5.21;79.76;101463.69;5082647;28;19912;-74
2022/01/02 14:33:34;;;;;;;;;;;;;;;5.10;80.59;101452.03;5069846;28;19912;-73
2022/01/02 14:36:19;;;;;;;;;;;;;;;4.86;81.68;101453.50;5073735;28;19917;-74
2022/01/02 14:39:08;;;;;;;;;;;;;;;4.79;82.46;101452.09;5078009;28;19912;-74
2022/01/02 14:41:52;;;;;;;;;;;;;;;4.68;82.71;101453.91;5072730;28;20373;-74
2022/01/02 14:44:37;;;;;;;;;;;;;;;4.67;83.73;101452.28;5075448;28;19912;-75